createdAt,value
2023-04-26T00:00:51.855Z,4.75
2023-04-26T00:01:51.863Z,4.75
2023-04-26T00:02:51.972Z,4.75
2023-04-26T00:04:15.801Z,4.77
2023-04-26T00:04:51.946Z,4.72
2023-04-26T00:05:51.907Z,4.74
2023-04-26T00:06:51.778Z,4.72
2023-04-26T00:07:51.814Z,4.74
2023-04-26T00:08:51.993Z,4.77
2023-04-26T00:09:51.759Z,4.77
2023-04-26T00:10:51.736Z,4.74
2023-04-26T00:11:51.768Z,4.74
2023-04-26T00:12:51.709Z,4.74
2023-04-26T00:13:51.728Z,4.75
2023-04-26T00:14:51.822Z,4.75
2023-04-26T00:15:51.777Z,4.74
2023-04-26T00:16:51.909Z,4.72
2023-04-26T00:17:51.766Z,4.74
2023-04-26T00:18:51.821Z,4.72
2023-04-26T00:19:51.679Z,4.74
2023-04-26T00:20:51.657Z,4.72
2023-04-26T00:21:51.648Z,4.71
2023-04-26T00:22:51.639Z,4.71
2023-04-26T00:23:51.621Z,4.71
2023-04-26T00:24:51.588Z,4.69
2023-04-26T00:25:51.641Z,4.68
2023-04-26T00:26:51.572Z,4.65
2023-04-26T00:27:51.619Z,4.65
2023-04-26T00:28:51.734Z,4.67
2023-04-26T00:29:51.572Z,4.64
2023-04-26T00:30:51.564Z,4.64
2023-04-26T00:31:51.602Z,4.61
2023-04-26T00:32:51.635Z,4.62
2023-04-26T00:33:51.549Z,4.61
2023-04-26T00:34:51.576Z,4.61
2023-04-26T00:35:51.531Z,4.59
2023-04-26T00:36:51.472Z,4.61
2023-04-26T00:37:51.548Z,4.59
2023-04-26T00:38:51.602Z,4.61
2023-04-26T00:39:51.470Z,4.57
2023-04-26T00:40:51.428Z,4.59
2023-04-26T00:41:51.449Z,4.59
2023-04-26T00:42:51.529Z,4.54
2023-04-26T00:43:51.468Z,4.51
2023-04-26T00:44:51.513Z,4.51
2023-04-26T00:45:51.575Z,4.49
2023-04-26T00:46:51.459Z,4.50
2023-04-26T00:47:51.500Z,4.49
2023-04-26T00:48:51.555Z,4.47
2023-04-26T00:49:51.406Z,4.46
2023-04-26T00:50:51.433Z,4.44
2023-04-26T00:51:51.356Z,4.44
2023-04-26T00:52:51.354Z,4.44
2023-04-26T00:53:51.322Z,4.43
2023-04-26T00:54:51.383Z,4.42
2023-04-26T00:56:23.213Z,4.39
2023-04-26T00:56:52.112Z,4.39
2023-04-26T00:57:51.289Z,4.39
2023-04-26T00:58:51.424Z,4.34
2023-04-26T00:59:51.300Z,4.36
2023-04-26T01:00:51.227Z,4.38
2023-04-26T01:01:51.237Z,4.39
2023-04-26T01:02:51.333Z,4.42
2023-04-26T01:03:51.496Z,4.39
2023-04-26T01:04:51.229Z,4.36
2023-04-26T01:05:51.362Z,4.36
2023-04-26T01:06:51.169Z,4.36
2023-04-26T01:07:51.177Z,4.36
2023-04-26T01:08:51.343Z,4.35
2023-04-26T01:09:51.161Z,4.36
2023-04-26T01:10:51.121Z,4.38
2023-04-26T01:11:51.168Z,4.39
2023-04-26T01:12:51.096Z,4.42
2023-04-26T01:13:51.106Z,4.44
2023-04-26T01:14:51.074Z,4.46
2023-04-26T01:15:51.112Z,4.49
2023-04-26T01:16:51.142Z,4.49
2023-04-26T01:17:51.120Z,4.50
2023-04-26T01:18:51.201Z,4.51
2023-04-26T01:19:51.044Z,4.54
2023-04-26T01:20:51.018Z,4.54
2023-04-26T01:21:51.058Z,4.59
2023-04-26T01:22:51.032Z,4.59
2023-04-26T01:23:51.005Z,4.61
2023-04-26T01:24:50.973Z,4.61
2023-04-26T01:25:50.983Z,4.61
2023-04-26T01:26:50.972Z,4.61
2023-04-26T01:27:50.970Z,4.61
2023-04-26T01:28:51.183Z,4.61
2023-04-26T01:29:50.951Z,4.61
2023-04-26T01:30:50.938Z,4.61
2023-04-26T01:31:50.916Z,4.61
2023-04-26T01:32:50.921Z,4.62
2023-04-26T01:33:50.940Z,4.61
2023-04-26T01:34:50.900Z,4.54
2023-04-26T01:35:50.883Z,4.51
2023-04-26T01:36:50.851Z,4.50
2023-04-26T01:37:50.855Z,4.51
2023-04-26T01:38:51.002Z,4.51
2023-04-26T01:39:50.854Z,4.53
2023-04-26T01:40:50.801Z,4.53
2023-04-26T01:41:50.832Z,4.50
2023-04-26T01:42:50.821Z,4.51
2023-04-26T01:43:50.792Z,4.50
2023-04-26T01:44:50.803Z,4.49
2023-04-26T01:45:50.795Z,4.47
2023-04-26T01:46:50.920Z,4.46
2023-04-26T01:47:50.790Z,4.44
2023-04-26T01:48:50.858Z,4.43
2023-04-26T01:49:50.766Z,4.44
2023-04-26T01:50:50.700Z,4.43
2023-04-26T01:51:50.720Z,4.38
2023-04-26T01:52:50.682Z,4.35
2023-04-26T01:53:50.708Z,4.34
2023-04-26T01:54:50.694Z,4.31
2023-04-26T01:55:50.682Z,4.32
2023-04-26T01:56:50.691Z,4.29
2023-04-26T01:57:50.685Z,4.31
2023-04-26T01:58:50.812Z,4.28
2023-04-26T01:59:50.634Z,4.26
2023-04-26T02:00:50.626Z,4.25
2023-04-26T02:01:50.646Z,4.25
2023-04-26T02:02:50.667Z,4.25
2023-04-26T02:03:50.639Z,4.24
2023-04-26T02:04:50.563Z,4.25
2023-04-26T02:05:50.593Z,4.24
2023-04-26T02:06:50.569Z,4.21
2023-04-26T02:07:50.537Z,4.21
2023-04-26T02:08:50.542Z,4.18
2023-04-26T02:09:50.524Z,4.18
2023-04-26T02:10:50.486Z,4.14
2023-04-26T02:11:50.533Z,4.14
2023-04-26T02:12:50.503Z,4.11
2023-04-26T02:13:50.505Z,4.11
2023-04-26T02:14:50.448Z,4.11
2023-04-26T02:15:50.518Z,4.08
2023-04-26T02:16:50.443Z,4.07
2023-04-26T02:17:50.506Z,4.07
2023-04-26T02:18:50.645Z,4.04
2023-04-26T02:19:50.428Z,4.04
2023-04-26T02:20:50.391Z,4.02
2023-04-26T02:21:50.405Z,3.99
2023-04-26T02:22:50.391Z,4.02
2023-04-26T02:23:50.435Z,4.00
2023-04-26T02:24:50.361Z,4.02
2023-04-26T02:25:50.362Z,4.00
2023-04-26T02:26:50.336Z,4.02
2023-04-26T02:27:50.345Z,4.00
2023-04-26T02:28:50.433Z,4.00
2023-04-26T02:29:50.328Z,3.98
2023-04-26T02:30:50.330Z,3.96
2023-04-26T02:31:51.014Z,3.96
2023-04-26T02:32:50.378Z,3.93
2023-04-26T02:33:50.973Z,3.93
2023-04-26T02:34:50.250Z,3.95
2023-04-26T02:35:50.290Z,3.92
2023-04-26T02:36:50.228Z,3.90
2023-04-26T02:37:50.237Z,3.92
2023-04-26T02:38:50.464Z,3.89
2023-04-26T02:39:50.220Z,3.89
2023-04-26T02:40:50.185Z,3.90
2023-04-26T02:41:50.194Z,3.89
2023-04-26T02:42:50.192Z,3.89
2023-04-26T02:43:50.185Z,3.90
2023-04-26T02:44:50.143Z,3.88
2023-04-26T02:45:50.194Z,3.81
2023-04-26T02:46:50.167Z,3.81
2023-04-26T02:47:50.168Z,3.82
2023-04-26T02:48:50.437Z,3.84
2023-04-26T02:49:50.118Z,3.84
2023-04-26T02:50:50.109Z,3.86
2023-04-26T02:51:50.123Z,3.88
2023-04-26T02:52:50.090Z,3.84
2023-04-26T02:53:50.086Z,3.82
2023-04-26T02:54:50.045Z,3.81
2023-04-26T02:55:50.047Z,3.81
2023-04-26T02:56:50.016Z,3.80
2023-04-26T02:57:50.069Z,3.80
2023-04-26T02:58:50.288Z,3.77
2023-04-26T02:59:50.032Z,3.80
2023-04-26T03:00:49.992Z,3.78
2023-04-26T03:01:50.050Z,3.72
2023-04-26T03:02:50.081Z,3.70
2023-04-26T03:03:50.041Z,3.71
2023-04-26T03:04:49.956Z,3.70
2023-04-26T03:05:49.945Z,3.70
2023-04-26T03:06:49.909Z,3.74
2023-04-26T03:07:49.930Z,3.74
2023-04-26T03:08:50.048Z,3.75
2023-04-26T03:09:49.925Z,3.77
2023-04-26T03:10:49.875Z,3.75
2023-04-26T03:11:50.331Z,3.75
2023-04-26T03:12:49.850Z,3.77
2023-04-26T03:13:49.860Z,3.77
2023-04-26T03:14:49.852Z,3.75
2023-04-26T03:15:49.856Z,3.71
2023-04-26T03:16:49.868Z,3.70
2023-04-26T03:17:49.852Z,3.68
2023-04-26T03:18:50.117Z,3.64
2023-04-26T03:19:49.807Z,3.63
2023-04-26T03:20:49.771Z,3.63
2023-04-26T03:21:49.826Z,3.56
2023-04-26T03:22:49.776Z,3.53
2023-04-26T03:23:49.796Z,3.53
2023-04-26T03:24:49.740Z,3.52
2023-04-26T03:25:49.740Z,3.52
2023-04-26T03:26:49.717Z,3.50
2023-04-26T03:27:49.753Z,3.46
2023-04-26T03:28:49.953Z,3.41
2023-04-26T03:29:49.734Z,3.34
2023-04-26T03:30:49.671Z,3.31
2023-04-26T03:31:49.704Z,3.31
2023-04-26T03:32:49.728Z,3.31
2023-04-26T03:33:49.700Z,3.33
2023-04-26T03:34:49.625Z,3.35
2023-04-26T03:35:49.644Z,3.37
2023-04-26T03:36:49.550Z,3.39
2023-04-26T03:37:50.809Z,3.31
2023-04-26T03:38:49.704Z,3.26
2023-04-26T03:39:49.599Z,3.23
2023-04-26T03:40:49.512Z,3.17
2023-04-26T03:41:49.595Z,3.17
2023-04-26T03:42:49.554Z,3.19
2023-04-26T03:43:49.519Z,3.22
2023-04-26T03:44:49.460Z,3.25
2023-04-26T03:45:49.557Z,3.28
2023-04-26T03:46:49.533Z,3.30
2023-04-26T03:47:49.529Z,3.33
2023-04-26T03:48:49.657Z,3.34
2023-04-26T03:49:49.428Z,3.33
2023-04-26T03:50:49.430Z,3.26
2023-04-26T03:51:49.422Z,3.20
2023-04-26T03:52:49.415Z,3.20
2023-04-26T03:53:49.381Z,3.19
2023-04-26T03:54:49.382Z,3.17
2023-04-26T03:55:49.388Z,3.13
2023-04-26T03:56:49.396Z,3.13
2023-04-26T03:57:49.329Z,3.10
2023-04-26T03:58:49.448Z,3.10
2023-04-26T03:59:49.303Z,3.10
2023-04-26T04:00:49.331Z,3.07
2023-04-26T04:01:49.326Z,3.05
2023-04-26T04:02:49.447Z,3.05
2023-04-26T04:03:49.362Z,3.04
2023-04-26T04:04:49.518Z,2.99
2023-04-26T04:05:49.267Z,2.99
2023-04-26T04:06:49.305Z,2.98
2023-04-26T04:07:49.236Z,2.94
2023-04-26T04:08:49.248Z,2.86
2023-04-26T04:09:49.206Z,2.79
2023-04-26T04:10:49.250Z,2.74
2023-04-26T04:11:49.190Z,2.76
2023-04-26T04:12:49.211Z,2.74
2023-04-26T04:13:49.168Z,2.80
2023-04-26T04:14:49.213Z,2.81
2023-04-26T04:15:49.207Z,2.77
2023-04-26T04:16:49.164Z,2.69
2023-04-26T04:17:49.178Z,2.63
2023-04-26T04:18:49.175Z,2.62
2023-04-26T04:19:49.125Z,2.63
2023-04-26T04:20:49.144Z,2.66
2023-04-26T04:21:49.087Z,2.69
2023-04-26T04:22:49.114Z,2.71
2023-04-26T04:23:49.090Z,2.69
2023-04-26T04:24:49.082Z,2.68
2023-04-26T04:25:49.056Z,2.62
2023-04-26T04:26:49.053Z,2.61
2023-04-26T04:27:49.015Z,2.59
2023-04-26T04:28:49.077Z,2.53
2023-04-26T04:29:48.998Z,2.53
2023-04-26T04:30:49.045Z,2.45
2023-04-26T04:31:49.101Z,2.38
2023-04-26T04:32:49.095Z,2.29
2023-04-26T04:33:48.988Z,2.29
2023-04-26T04:34:49.627Z,2.30
2023-04-26T04:35:49.049Z,2.32
2023-04-26T04:36:48.961Z,2.37
2023-04-26T04:37:48.912Z,2.41
2023-04-26T04:38:48.954Z,2.43
2023-04-26T04:39:48.937Z,2.47
2023-04-26T04:40:48.913Z,2.44
2023-04-26T04:41:48.881Z,2.37
2023-04-26T04:42:48.893Z,2.29
2023-04-26T04:43:48.848Z,2.25
2023-04-26T04:44:48.900Z,2.22
2023-04-26T04:45:48.866Z,2.19
2023-04-26T04:46:48.898Z,2.18
2023-04-26T04:47:48.920Z,2.12
2023-04-26T04:48:48.882Z,2.11
2023-04-26T04:49:48.794Z,2.09
2023-04-26T04:50:48.844Z,2.14
2023-04-26T04:51:48.778Z,2.22
2023-04-26T04:52:48.783Z,2.27
2023-04-26T04:53:48.754Z,2.30
2023-04-26T04:54:48.776Z,2.26
2023-04-26T04:55:48.764Z,2.29
2023-04-26T04:56:48.742Z,2.32
2023-04-26T04:57:48.742Z,2.27
2023-04-26T04:58:48.729Z,2.23
2023-04-26T04:59:48.702Z,2.25
2023-04-26T05:00:48.747Z,2.30
2023-04-26T05:01:48.740Z,2.30
2023-04-26T05:02:48.869Z,2.37
2023-04-26T05:03:48.751Z,2.38
2023-04-26T05:04:48.765Z,2.51
2023-04-26T05:05:48.662Z,2.59
2023-04-26T05:06:48.652Z,2.56
2023-04-26T05:07:48.615Z,2.56
2023-04-26T05:08:48.634Z,2.48
2023-04-26T05:09:48.625Z,2.43
2023-04-26T05:10:48.608Z,2.37
2023-04-26T05:11:48.580Z,2.29
2023-04-26T05:12:48.608Z,2.26
2023-04-26T05:13:49.387Z,2.23
2023-04-26T05:14:48.587Z,2.27
2023-04-26T05:15:48.555Z,2.29
2023-04-26T05:16:48.646Z,2.30
2023-04-26T05:17:48.570Z,2.29
2023-04-26T05:18:48.547Z,2.30
2023-04-26T05:19:48.494Z,2.36
2023-04-26T05:20:48.549Z,2.32
2023-04-26T05:21:48.470Z,2.30
2023-04-26T05:22:48.528Z,2.30
2023-04-26T05:23:48.461Z,2.32
2023-04-26T05:24:48.466Z,2.36
2023-04-26T05:25:48.456Z,2.38
2023-04-26T05:26:48.445Z,2.48
2023-04-26T05:27:48.433Z,2.55
2023-04-26T05:28:48.445Z,2.62
2023-04-26T05:29:48.392Z,2.68
2023-04-26T05:30:48.393Z,2.66
2023-04-26T05:31:48.392Z,2.61
2023-04-26T05:32:48.441Z,2.61
2023-04-26T05:33:48.345Z,2.65
2023-04-26T05:34:48.382Z,2.73
2023-04-26T05:35:48.364Z,2.80
2023-04-26T05:36:48.336Z,2.86
2023-04-26T05:37:48.328Z,2.92
2023-04-26T05:38:48.317Z,2.89
2023-04-26T05:39:48.279Z,2.89
2023-04-26T05:40:48.364Z,2.83
2023-04-26T05:41:48.265Z,2.84
2023-04-26T05:42:48.283Z,2.89
2023-04-26T05:43:48.269Z,2.97
2023-04-26T05:44:48.253Z,3.02
2023-04-26T05:45:48.256Z,3.04
2023-04-26T05:46:48.245Z,3.02
2023-04-26T05:47:48.215Z,3.02
2023-04-26T05:48:48.226Z,3.05
2023-04-26T05:49:48.181Z,3.13
2023-04-26T05:50:48.183Z,3.25
2023-04-26T05:51:48.153Z,3.33
2023-04-26T05:52:48.177Z,3.42
2023-04-26T05:53:48.184Z,3.53
2023-04-26T05:54:48.144Z,3.62
2023-04-26T05:55:48.118Z,3.71
2023-04-26T05:56:48.157Z,3.74
2023-04-26T05:57:48.139Z,3.78
2023-04-26T05:58:48.109Z,3.64
2023-04-26T05:59:48.067Z,3.62
2023-04-26T06:00:48.125Z,3.53
2023-04-26T06:01:48.142Z,3.50
2023-04-26T06:02:48.111Z,3.45
2023-04-26T06:03:48.312Z,3.45
2023-04-26T06:04:48.346Z,3.41
2023-04-26T06:05:48.060Z,3.41
2023-04-26T06:06:51.155Z,3.50
2023-04-26T06:07:50.592Z,3.54
2023-04-26T06:08:48.009Z,3.57
2023-04-26T06:09:47.977Z,3.70
2023-04-26T06:10:48.672Z,3.81
2023-04-26T06:11:47.937Z,3.92
2023-04-26T06:13:08.943Z,3.93
2023-04-26T06:13:47.955Z,4.00
2023-04-26T06:14:47.912Z,3.98
2023-04-26T06:15:47.953Z,3.95
2023-04-26T06:16:47.946Z,3.96
2023-04-26T06:18:15.651Z,3.95
2023-04-26T06:18:47.980Z,3.86
2023-04-26T06:19:53.249Z,3.96
2023-04-26T06:20:47.888Z,3.88
2023-04-26T06:21:49.094Z,3.88
2023-04-26T06:22:47.868Z,3.96
2023-04-26T06:24:08.866Z,3.99
2023-04-26T06:24:47.828Z,3.90
2023-04-26T06:25:54.619Z,3.92
2023-04-26T06:27:57.443Z,3.98
2023-04-26T06:28:58.383Z,3.98
2023-04-26T06:29:58.452Z,3.89
2023-04-26T06:30:58.561Z,3.86
2023-04-26T06:32:12.964Z,3.86
2023-04-26T06:32:58.426Z,3.82
2023-04-26T06:33:58.362Z,3.88
2023-04-26T06:35:12.936Z,3.93
2023-04-26T06:35:58.352Z,3.99
2023-04-26T06:38:08.009Z,4.02
2023-04-26T06:39:08.962Z,4.02
2023-04-26T06:40:08.929Z,4.00
2023-04-26T06:41:08.902Z,3.99
2023-04-26T06:42:15.487Z,4.02
2023-04-26T06:43:08.875Z,4.06
2023-04-26T06:44:08.927Z,4.11
2023-04-26T06:45:08.878Z,4.16
2023-04-26T06:46:08.939Z,4.21
2023-04-26T06:47:08.828Z,4.25
2023-04-26T06:48:08.890Z,4.24
2023-04-26T06:49:08.821Z,4.24
2023-04-26T06:50:08.872Z,4.24
2023-04-26T06:51:13.939Z,4.29
2023-04-26T06:52:09.532Z,4.34
2023-04-26T06:53:08.780Z,4.35
2023-04-26T06:54:09.118Z,4.39
2023-04-26T06:55:08.751Z,4.43
2023-04-26T06:59:37.558Z,4.77
2023-04-26T07:02:01.864Z,4.83
2023-04-26T07:03:24.385Z,4.83
2023-04-26T07:03:55.651Z,4.83
2023-04-26T07:04:48.703Z,4.84
2023-04-26T07:05:48.481Z,4.90
2023-04-26T07:06:48.510Z,4.99
2023-04-26T07:07:48.470Z,5.04
2023-04-26T07:08:48.534Z,4.97
2023-04-26T07:09:48.462Z,5.01
2023-04-26T07:10:48.476Z,5.01
2023-04-26T07:11:48.602Z,5.05
2023-04-26T07:12:48.686Z,5.11
2023-04-26T07:13:48.409Z,5.15
2023-04-26T07:14:48.424Z,5.22
2023-04-26T07:15:48.473Z,5.22
2023-04-26T07:16:56.292Z,5.23
2023-04-26T07:18:09.470Z,5.19
2023-04-26T07:18:56.354Z,5.19
2023-04-26T07:19:49.175Z,5.17
2023-04-26T07:20:48.352Z,5.17
2023-04-26T07:21:48.384Z,5.23
2023-04-26T07:22:48.319Z,5.20
2023-04-26T07:23:48.335Z,5.14
2023-04-26T07:24:48.295Z,5.05
2023-04-26T07:25:48.344Z,5.02
2023-04-26T07:26:48.281Z,5.04
2023-04-26T07:28:09.268Z,5.11
2023-04-26T07:28:48.293Z,5.19
2023-04-26T07:29:48.280Z,5.15
2023-04-26T07:30:48.308Z,5.26
2023-04-26T07:31:48.219Z,5.37
2023-04-26T07:32:48.331Z,5.42
2023-04-26T07:33:48.307Z,5.48
2023-04-26T07:34:48.241Z,5.60
2023-04-26T07:35:48.195Z,5.70
2023-04-26T07:36:48.215Z,5.77
2023-04-26T07:37:48.163Z,5.84
2023-04-26T07:38:54.761Z,5.88
2023-04-26T07:39:48.165Z,5.93
2023-04-26T07:40:48.169Z,5.96
2023-04-26T07:41:48.115Z,5.92
2023-04-26T07:42:48.138Z,5.92
2023-04-26T07:43:48.100Z,5.90
2023-04-26T07:44:48.139Z,5.92
2023-04-26T07:45:49.390Z,5.93
2023-04-26T07:46:48.116Z,5.99
2023-04-26T07:48:07.526Z,6.13
2023-04-26T07:48:48.098Z,6.19
2023-04-26T07:49:48.065Z,6.27
2023-04-26T07:50:48.097Z,6.28
2023-04-26T07:51:48.008Z,6.24
2023-04-26T07:52:48.039Z,6.21
2023-04-26T07:53:48.024Z,6.20
2023-04-26T07:54:48.032Z,6.27
2023-04-26T07:55:48.005Z,6.20
2023-04-26T07:56:48.001Z,6.25
2023-04-26T07:57:47.956Z,6.24
2023-04-26T07:58:47.986Z,6.33
2023-04-26T07:59:47.959Z,6.43
2023-04-26T08:00:47.955Z,6.57
2023-04-26T08:01:47.961Z,6.71
2023-04-26T08:02:48.103Z,6.83
2023-04-26T08:04:57.870Z,7.05
2023-04-26T08:06:13.739Z,6.99
2023-04-26T08:06:58.601Z,6.96
2023-04-26T08:07:59.047Z,6.93
2023-04-26T08:08:58.613Z,6.86
2023-04-26T08:09:58.592Z,6.82
2023-04-26T08:10:58.543Z,6.81
2023-04-26T08:12:13.614Z,6.78
2023-04-26T08:12:58.570Z,6.78
2023-04-26T08:13:58.536Z,6.73
2023-04-26T08:14:58.491Z,6.75
2023-04-26T08:15:58.526Z,6.73
2023-04-26T08:17:01.050Z,6.75
2023-04-26T08:17:58.551Z,6.81
2023-04-26T08:18:59.038Z,6.87
2023-04-26T08:19:58.495Z,6.83
2023-04-26T08:20:58.508Z,6.75
2023-04-26T08:21:58.588Z,6.68
2023-04-26T08:22:58.460Z,6.69
2023-04-26T08:23:58.468Z,6.73
2023-04-26T08:24:58.427Z,6.75
2023-04-26T08:25:58.408Z,6.63
2023-04-26T08:26:58.398Z,6.54
2023-04-26T08:27:58.391Z,6.61
2023-04-26T08:28:58.402Z,6.63
2023-04-26T08:29:58.375Z,6.65
2023-04-26T08:30:58.401Z,6.71
2023-04-26T08:31:58.349Z,6.72
2023-04-26T08:32:58.427Z,6.72
2023-04-26T08:33:58.340Z,6.79
2023-04-26T08:34:58.318Z,6.89
2023-04-26T08:35:58.327Z,6.97
2023-04-26T08:36:58.299Z,6.94
2023-04-26T08:37:58.287Z,7.04
2023-04-26T08:38:58.272Z,7.05
2023-04-26T08:39:58.292Z,7.05
2023-04-26T08:40:58.263Z,7.09
2023-04-26T08:41:58.252Z,7.11
2023-04-26T08:42:58.230Z,7.09
2023-04-26T08:43:58.260Z,7.07
2023-04-26T08:44:58.194Z,6.94
2023-04-26T08:45:58.223Z,6.91
2023-04-26T08:46:58.201Z,6.90
2023-04-26T08:47:58.233Z,6.73
2023-04-26T08:48:58.182Z,6.75
2023-04-26T08:49:58.191Z,6.72
2023-04-26T08:50:58.172Z,6.72
2023-04-26T08:51:58.146Z,6.71
2023-04-26T08:52:58.106Z,6.72
2023-04-26T08:53:58.130Z,6.73
2023-04-26T08:54:58.115Z,6.75
2023-04-26T08:55:58.106Z,6.76
2023-04-26T08:56:58.076Z,6.75
2023-04-26T08:57:58.089Z,6.79
2023-04-26T08:58:58.056Z,6.81
2023-04-26T08:59:58.101Z,6.76
2023-04-26T09:00:58.043Z,6.69
2023-04-26T09:01:58.118Z,6.75
2023-04-26T09:02:58.180Z,6.81
2023-04-26T09:03:58.500Z,6.79
2023-04-26T09:04:58.142Z,6.82
2023-04-26T09:05:57.994Z,6.87
2023-04-26T09:06:57.969Z,6.94
2023-04-26T09:07:58.007Z,6.99
2023-04-26T09:08:57.960Z,6.99
2023-04-26T09:10:33.546Z,7.05
2023-04-26T09:10:57.952Z,7.07
2023-04-26T09:11:57.974Z,7.09
2023-04-26T09:12:57.962Z,7.12
2023-04-26T09:13:57.889Z,7.16
2023-04-26T09:14:57.916Z,7.21
2023-04-26T09:15:57.931Z,7.27
2023-04-26T09:16:57.884Z,7.23
2023-04-26T09:17:57.936Z,7.26
2023-04-26T09:18:57.973Z,7.32
2023-04-26T09:19:57.820Z,7.41
2023-04-26T09:22:07.556Z,7.50
2023-04-26T09:23:08.541Z,7.48
2023-04-26T09:24:08.517Z,7.24
2023-04-26T09:25:08.506Z,7.16
2023-04-26T09:26:08.505Z,7.09
2023-04-26T09:27:08.483Z,7.16
2023-04-26T09:28:08.452Z,7.15
2023-04-26T09:29:08.508Z,7.24
2023-04-26T09:30:08.448Z,7.23
2023-04-26T09:31:08.486Z,7.32
2023-04-26T09:32:08.412Z,7.37
2023-04-26T09:33:08.504Z,7.45
2023-04-26T09:34:09.918Z,7.57
2023-04-26T09:35:16.022Z,7.63
2023-04-26T09:36:13.590Z,7.60
2023-04-26T09:37:08.399Z,7.63
2023-04-26T09:38:12.708Z,7.63
2023-04-26T09:39:08.360Z,7.70
2023-04-26T09:40:08.319Z,7.69
2023-04-26T09:42:18.681Z,7.63
2023-04-26T09:43:18.961Z,7.62
2023-04-26T09:44:18.913Z,7.67
2023-04-26T09:45:18.945Z,7.60
2023-04-26T09:46:18.951Z,7.62
2023-04-26T09:47:18.936Z,7.67
2023-04-26T09:48:18.865Z,7.70
2023-04-26T09:49:18.923Z,7.71
2023-04-26T09:50:18.890Z,7.73
2023-04-26T09:51:18.904Z,7.77
2023-04-26T09:52:18.830Z,7.84
2023-04-26T09:53:18.870Z,7.89
2023-04-26T09:54:18.844Z,7.89
2023-04-26T09:55:31.132Z,7.89
2023-04-26T09:56:18.985Z,7.84
2023-04-26T09:57:18.840Z,7.50
2023-04-26T09:58:19.839Z,7.44
2023-04-26T09:59:18.791Z,7.41
2023-04-26T10:00:18.817Z,7.45
2023-04-26T10:01:18.809Z,7.48
2023-04-26T10:02:18.910Z,7.54
2023-04-26T10:03:18.903Z,7.63
2023-04-26T10:04:18.788Z,7.55
2023-04-26T10:05:18.733Z,7.58
2023-04-26T10:06:18.710Z,7.50
2023-04-26T10:07:18.724Z,7.50
2023-04-26T10:08:18.656Z,7.54
2023-04-26T10:09:18.713Z,7.60
2023-04-26T10:10:18.659Z,7.63
2023-04-26T10:11:18.662Z,7.69
2023-04-26T10:12:18.628Z,7.73
2023-04-26T10:13:18.673Z,7.74
2023-04-26T10:14:18.629Z,7.71
2023-04-26T10:15:18.624Z,7.60
2023-04-26T10:16:18.624Z,7.57
2023-04-26T10:17:18.602Z,7.67
2023-04-26T10:18:33.194Z,7.77
2023-04-26T10:19:18.576Z,7.81
2023-04-26T10:20:21.477Z,7.79
2023-04-26T10:21:18.556Z,7.79
2023-04-26T10:22:18.580Z,7.85
2023-04-26T10:23:18.553Z,7.85
2023-04-26T10:24:18.541Z,7.85
2023-04-26T10:25:18.512Z,7.91
2023-04-26T10:26:18.476Z,7.91
2023-04-26T10:27:18.481Z,7.96
2023-04-26T10:28:18.464Z,8.02
2023-04-26T10:29:18.481Z,8.13
2023-04-26T10:30:18.466Z,8.17
2023-04-26T10:31:18.507Z,8.03
2023-04-26T10:32:18.501Z,7.88
2023-04-26T10:33:18.473Z,7.94
2023-04-26T10:34:18.399Z,8.02
2023-04-26T10:35:18.419Z,8.07
2023-04-26T10:36:18.414Z,8.21
2023-04-26T10:37:18.440Z,8.24
2023-04-26T10:38:18.381Z,8.21
2023-04-26T10:39:18.389Z,8.28
2023-04-26T10:40:18.340Z,8.52
2023-04-26T10:41:18.349Z,8.55
2023-04-26T10:42:18.357Z,8.61
2023-04-26T10:43:18.384Z,8.67
2023-04-26T10:44:18.294Z,8.75
2023-04-26T10:45:18.306Z,8.67
2023-04-26T10:46:18.288Z,8.50
2023-04-26T10:47:18.345Z,8.42
2023-04-26T10:48:18.272Z,8.10
2023-04-26T10:49:18.274Z,8.06
2023-04-26T10:50:18.231Z,8.12
2023-04-26T10:51:18.240Z,8.10
2023-04-26T10:52:18.350Z,8.12
2023-04-26T10:53:18.229Z,7.99
2023-04-26T10:54:18.237Z,8.02
2023-04-26T10:55:18.209Z,8.03
2023-04-26T10:56:18.186Z,8.09
2023-04-26T10:57:18.175Z,8.10
2023-04-26T10:58:18.225Z,8.14
2023-04-26T10:59:36.385Z,8.22
2023-04-26T11:00:18.168Z,8.27
2023-04-26T11:01:18.183Z,8.25
2023-04-26T11:02:18.178Z,8.24
2023-04-26T11:03:18.214Z,8.25
2023-04-26T11:04:18.176Z,8.20
2023-04-26T11:05:18.078Z,8.18
2023-04-26T11:06:18.211Z,8.20
2023-04-26T11:07:18.065Z,8.24
2023-04-26T11:08:18.075Z,8.22
2023-04-26T11:09:18.026Z,8.22
2023-04-26T11:10:19.008Z,8.22
2023-04-26T11:11:26.025Z,8.18
2023-04-26T11:12:33.008Z,8.18
2023-04-26T11:13:17.994Z,8.20
2023-04-26T11:14:18.008Z,8.28
2023-04-26T11:15:17.979Z,8.17
2023-04-26T11:16:18.661Z,8.27
2023-04-26T11:17:17.960Z,8.34
2023-04-26T11:18:17.970Z,8.40
2023-04-26T11:19:17.938Z,8.46
2023-04-26T11:20:17.980Z,8.60
2023-04-26T11:21:18.298Z,8.70
2023-04-26T11:22:17.920Z,8.80
2023-04-26T11:23:18.023Z,8.82
2023-04-26T11:24:17.933Z,8.82
2023-04-26T11:25:17.879Z,8.83
2023-04-26T11:26:17.903Z,8.79
2023-04-26T11:27:17.866Z,8.80
2023-04-26T11:28:17.897Z,8.76
2023-04-26T11:29:17.838Z,8.78
2023-04-26T11:30:17.888Z,8.79
2023-04-26T11:31:17.874Z,8.79
2023-04-26T11:32:17.829Z,8.75
2023-04-26T11:33:17.816Z,8.73
2023-04-26T11:34:17.810Z,8.52
2023-04-26T11:35:17.795Z,8.42
2023-04-26T11:36:17.835Z,8.28
2023-04-26T11:37:17.751Z,8.28
2023-04-26T11:38:17.764Z,8.32
2023-04-26T11:39:17.729Z,8.37
2023-04-26T11:40:17.842Z,8.42
2023-04-26T11:41:17.752Z,8.46
2023-04-26T11:42:17.743Z,8.57
2023-04-26T11:43:17.708Z,8.52
2023-04-26T11:44:17.720Z,8.27
2023-04-26T11:45:17.669Z,8.31
2023-04-26T11:46:17.707Z,8.42
2023-04-26T11:47:17.680Z,8.47
2023-04-26T11:48:17.712Z,8.45
2023-04-26T11:49:32.639Z,8.25
2023-04-26T11:50:17.664Z,8.36
2023-04-26T11:51:17.609Z,8.46
2023-04-26T11:52:17.624Z,8.46
2023-04-26T11:53:17.592Z,8.52
2023-04-26T11:54:17.632Z,8.27
2023-04-26T11:55:17.557Z,8.39
2023-04-26T11:56:17.600Z,8.45
2023-04-26T11:57:18.174Z,8.49
2023-04-26T11:58:17.571Z,8.40
2023-04-26T11:59:17.552Z,8.52
2023-04-26T12:00:17.543Z,8.49
2023-04-26T12:01:17.504Z,8.57
2023-04-26T12:02:17.574Z,8.65
2023-04-26T12:03:17.727Z,8.75
2023-04-26T12:04:17.792Z,8.80
2023-04-26T12:05:17.525Z,8.85
2023-04-26T12:06:17.481Z,8.78
2023-04-26T12:07:17.444Z,8.83
2023-04-26T12:08:17.464Z,8.79
2023-04-26T12:09:17.476Z,8.75
2023-04-26T12:10:17.436Z,8.67
2023-04-26T12:11:17.424Z,8.64
2023-04-26T12:12:17.448Z,8.65
2023-04-26T12:13:17.408Z,8.67
2023-04-26T12:14:17.425Z,8.46
2023-04-26T12:15:17.396Z,8.40
2023-04-26T12:17:17.421Z,8.55
2023-04-26T12:18:17.664Z,8.63
2023-04-26T12:19:17.363Z,8.73
2023-04-26T12:20:17.356Z,8.80
2023-04-26T12:21:17.299Z,8.83
2023-04-26T12:22:17.340Z,8.88
2023-04-26T12:23:17.288Z,8.91
2023-04-26T12:24:17.285Z,8.96
2023-04-26T12:25:17.288Z,8.97
2023-04-26T12:26:17.281Z,8.96
2023-04-26T12:27:17.227Z,8.91
2023-04-26T12:28:17.247Z,8.70
2023-04-26T12:29:17.209Z,8.68
2023-04-26T12:30:17.226Z,8.63
2023-04-26T12:31:17.240Z,8.65
2023-04-26T12:32:17.211Z,8.73
2023-04-26T12:33:18.039Z,8.78
2023-04-26T12:34:17.208Z,8.85
2023-04-26T12:35:43.549Z,8.88
2023-04-26T12:36:17.146Z,8.83
2023-04-26T12:37:17.156Z,8.89
2023-04-26T12:38:17.143Z,8.96
2023-04-26T12:39:17.158Z,8.98
2023-04-26T12:40:17.159Z,8.97
2023-04-26T12:41:17.107Z,8.86
2023-04-26T12:42:17.075Z,8.89
2023-04-26T12:43:17.137Z,8.89
2023-04-26T12:44:24.013Z,8.91
2023-04-26T12:45:17.078Z,9.00
2023-04-26T12:46:17.088Z,9.10
2023-04-26T12:47:17.080Z,9.15
2023-04-26T12:48:17.410Z,9.20
2023-04-26T12:49:17.055Z,9.26
2023-04-26T12:50:18.709Z,9.20
2023-04-26T12:51:17.292Z,9.22
2023-04-26T12:52:16.991Z,9.24
2023-04-26T12:53:16.989Z,9.34
2023-04-26T12:54:16.962Z,9.32
2023-04-26T12:55:17.047Z,9.40
2023-04-26T12:56:16.959Z,9.38
2023-04-26T12:57:16.954Z,9.34
2023-04-26T12:58:16.915Z,9.27
2023-04-26T12:59:16.920Z,9.19
2023-04-26T13:00:16.951Z,9.20
2023-04-26T13:01:16.958Z,9.26
2023-04-26T13:02:16.953Z,9.26
2023-04-26T13:03:16.934Z,9.08
2023-04-26T13:04:17.089Z,9.03
2023-04-26T13:05:16.875Z,9.08
2023-04-26T13:06:17.604Z,9.19
2023-04-26T13:07:16.873Z,9.26
2023-04-26T13:08:16.888Z,9.24
2023-04-26T13:09:16.860Z,9.16
2023-04-26T13:10:16.810Z,9.08
2023-04-26T13:11:16.852Z,9.08
2023-04-26T13:12:16.835Z,9.15
2023-04-26T13:13:16.777Z,9.23
2023-04-26T13:14:16.749Z,9.24
2023-04-26T13:15:17.772Z,9.19
2023-04-26T13:16:16.768Z,8.98
2023-04-26T13:17:16.755Z,9.19
2023-04-26T13:18:17.066Z,9.24
2023-04-26T13:19:16.751Z,9.37
2023-04-26T13:20:16.682Z,9.52
2023-04-26T13:21:16.724Z,9.78
2023-04-26T13:22:16.677Z,10.20
2023-04-26T13:23:16.667Z,10.22
2023-04-26T13:24:16.648Z,10.06
2023-04-26T13:25:16.678Z,9.86
2023-04-26T13:26:16.637Z,9.75
2023-04-26T13:27:16.650Z,9.70
2023-04-26T13:28:16.622Z,9.58
2023-04-26T13:29:16.630Z,9.53
2023-04-26T13:30:16.576Z,9.62